createdAt,value
2023-03-29T00:00:46.445Z,1011.15
2023-03-29T00:01:46.415Z,1011.16
2023-03-29T00:02:46.492Z,1011.19
2023-03-29T00:03:46.455Z,1011.11
2023-03-29T00:04:46.380Z,1011.13
2023-03-29T00:05:46.383Z,1011.06
2023-03-29T00:06:46.350Z,1011.08
2023-03-29T00:07:46.361Z,1010.99
2023-03-29T00:08:46.339Z,1011.00
2023-03-29T00:09:46.328Z,1011.00
2023-03-29T00:10:46.313Z,1010.99
2023-03-29T00:11:46.302Z,1010.99
2023-03-29T00:12:46.297Z,1010.91
2023-03-29T00:13:46.277Z,1010.86
2023-03-29T00:14:46.292Z,1010.84
2023-03-29T00:15:46.275Z,1010.83
2023-03-29T00:16:46.341Z,1010.75
2023-03-29T00:17:46.313Z,1010.78
2023-03-29T00:18:46.220Z,1010.77
2023-03-29T00:19:46.224Z,1010.65
2023-03-29T00:20:46.218Z,1010.76
2023-03-29T00:21:46.196Z,1010.69
2023-03-29T00:22:46.202Z,1010.69
2023-03-29T00:23:46.199Z,1010.57
2023-03-29T00:24:46.162Z,1010.69
2023-03-29T00:25:46.167Z,1010.64
2023-03-29T00:26:46.131Z,1010.65
2023-03-29T00:27:46.125Z,1010.58
2023-03-29T00:28:46.115Z,1010.61
2023-03-29T00:29:46.106Z,1010.57
2023-03-29T00:30:46.100Z,1010.58
2023-03-29T00:31:46.185Z,1010.61
2023-03-29T00:32:46.171Z,1010.60
2023-03-29T00:33:46.056Z,1010.59
2023-03-29T00:34:46.159Z,1010.57
2023-03-29T00:35:46.054Z,1010.62
2023-03-29T00:36:46.064Z,1010.55
2023-03-29T00:37:46.009Z,1010.59
2023-03-29T00:38:46.004Z,1010.59
2023-03-29T00:39:46.013Z,1010.61
2023-03-29T00:40:45.994Z,1010.60
2023-03-29T00:41:45.973Z,1010.55
2023-03-29T00:42:45.956Z,1010.64
2023-03-29T00:43:45.956Z,1010.60
2023-03-29T00:44:45.937Z,1010.58
2023-03-29T00:45:45.931Z,1010.58
2023-03-29T00:46:46.005Z,1010.58
2023-03-29T00:47:45.921Z,1010.62
2023-03-29T00:48:45.935Z,1010.60
2023-03-29T00:49:45.899Z,1010.60
2023-03-29T00:50:45.874Z,1010.51
2023-03-29T00:51:45.874Z,1010.49
2023-03-29T00:52:45.856Z,1010.51
2023-03-29T00:53:45.836Z,1010.50
2023-03-29T00:54:45.823Z,1010.54
2023-03-29T00:55:45.850Z,1010.51
2023-03-29T00:56:45.840Z,1010.53
2023-03-29T00:57:45.790Z,1010.49
2023-03-29T00:58:45.782Z,1010.49
2023-03-29T00:59:45.763Z,1010.48
2023-03-29T01:00:45.758Z,1010.46
2023-03-29T01:01:45.811Z,1010.50
2023-03-29T01:02:45.826Z,1010.50
2023-03-29T01:03:45.786Z,1010.40
2023-03-29T01:04:45.739Z,1010.48
2023-03-29T01:05:45.720Z,1010.47
2023-03-29T01:06:45.709Z,1010.46
2023-03-29T01:07:45.687Z,1010.44
2023-03-29T01:08:45.699Z,1010.40
2023-03-29T01:09:45.656Z,1010.42
2023-03-29T01:10:45.646Z,1010.42
2023-03-29T01:11:45.631Z,1010.43
2023-03-29T01:12:45.625Z,1010.35
2023-03-29T01:13:45.626Z,1010.38
2023-03-29T01:14:45.608Z,1010.37
2023-03-29T01:15:45.600Z,1010.36
2023-03-29T01:16:45.689Z,1010.30
2023-03-29T01:17:45.643Z,1010.29
2023-03-29T01:18:45.573Z,1010.31
2023-03-29T01:19:45.548Z,1010.21
2023-03-29T01:20:45.562Z,1010.16
2023-03-29T01:21:45.530Z,1010.17
2023-03-29T01:22:45.512Z,1010.17
2023-03-29T01:23:45.516Z,1010.08
2023-03-29T01:24:45.501Z,1010.09
2023-03-29T01:25:45.538Z,1010.04
2023-03-29T01:26:45.474Z,1009.97
2023-03-29T01:27:45.461Z,1010.04
2023-03-29T01:28:45.457Z,1009.98
2023-03-29T01:29:45.486Z,1010.04
2023-03-29T01:30:45.438Z,1009.98
2023-03-29T01:31:45.459Z,1009.95
2023-03-29T01:32:45.455Z,1010.04
2023-03-29T01:33:45.415Z,1009.98
2023-03-29T01:34:45.410Z,1009.97
2023-03-29T01:35:52.545Z,1009.96
2023-03-29T01:36:45.360Z,1009.83
2023-03-29T01:37:45.344Z,1009.81
2023-03-29T01:38:45.343Z,1009.76
2023-03-29T01:39:45.344Z,1009.73
2023-03-29T01:40:45.323Z,1009.71
2023-03-29T01:41:45.307Z,1009.62
2023-03-29T01:42:45.329Z,1009.56
2023-03-29T01:43:45.280Z,1009.65
2023-03-29T01:44:45.268Z,1009.62
2023-03-29T01:45:45.309Z,1009.63
2023-03-29T01:46:45.251Z,1009.59
2023-03-29T01:47:45.296Z,1009.62
2023-03-29T01:48:45.237Z,1009.65
2023-03-29T01:49:45.232Z,1009.59
2023-03-29T01:50:45.206Z,1009.55
2023-03-29T01:51:45.220Z,1009.54
2023-03-29T01:52:45.190Z,1009.47
2023-03-29T01:53:45.177Z,1009.56
2023-03-29T01:54:45.176Z,1009.60
2023-03-29T01:55:45.160Z,1009.62
2023-03-29T01:56:45.163Z,1009.58
2023-03-29T01:57:45.141Z,1009.59
2023-03-29T01:58:45.134Z,1009.53
2023-03-29T01:59:45.113Z,1009.61
2023-03-29T02:00:45.104Z,1009.62
2023-03-29T02:01:45.140Z,1009.61
2023-03-29T02:02:45.169Z,1009.58
2023-03-29T02:03:45.108Z,1009.66
2023-03-29T02:04:45.063Z,1009.64
2023-03-29T02:05:45.041Z,1009.67
2023-03-29T02:06:45.026Z,1009.70
2023-03-29T02:07:45.128Z,1009.64
2023-03-29T02:08:45.015Z,1009.66
2023-03-29T02:09:45.007Z,1009.65
2023-03-29T02:10:44.988Z,1009.59
2023-03-29T02:11:44.980Z,1009.63
2023-03-29T02:12:44.971Z,1009.60
2023-03-29T02:13:44.962Z,1009.58
2023-03-29T02:14:44.937Z,1009.57
2023-03-29T02:15:44.958Z,1009.53
2023-03-29T02:16:44.916Z,1009.58
2023-03-29T02:17:44.953Z,1009.56
2023-03-29T02:18:44.924Z,1009.66
2023-03-29T02:19:44.880Z,1009.55
2023-03-29T02:20:44.872Z,1009.50
2023-03-29T02:21:44.867Z,1009.48
2023-03-29T02:22:44.849Z,1009.54
2023-03-29T02:23:44.857Z,1009.55
2023-03-29T02:24:44.837Z,1009.52
2023-03-29T02:25:44.816Z,1009.55
2023-03-29T02:26:44.813Z,1009.53
2023-03-29T02:27:44.790Z,1009.52
2023-03-29T02:28:44.785Z,1009.42
2023-03-29T02:29:44.784Z,1009.42
2023-03-29T02:30:44.774Z,1009.36
2023-03-29T02:31:44.792Z,1009.39
2023-03-29T02:32:44.802Z,1009.37
2023-03-29T02:33:44.730Z,1009.37
2023-03-29T02:34:44.723Z,1009.42
2023-03-29T02:35:44.752Z,1009.39
2023-03-29T02:36:44.695Z,1009.35
2023-03-29T02:37:44.683Z,1009.31
2023-03-29T02:38:44.672Z,1009.29
2023-03-29T02:39:44.695Z,1009.28
2023-03-29T02:40:44.651Z,1009.24
2023-03-29T02:41:44.642Z,1009.23
2023-03-29T02:42:44.625Z,1009.22
2023-03-29T02:43:44.624Z,1009.21
2023-03-29T02:44:44.604Z,1009.20
2023-03-29T02:45:44.606Z,1009.14
2023-03-29T02:46:44.625Z,1009.12
2023-03-29T02:47:44.609Z,1009.12
2023-03-29T02:48:44.565Z,1009.12
2023-03-29T02:49:44.554Z,1009.13
2023-03-29T02:50:44.540Z,1009.07
2023-03-29T02:51:44.531Z,1009.15
2023-03-29T02:52:44.516Z,1009.07
2023-03-29T02:53:44.502Z,1009.04
2023-03-29T02:54:44.510Z,1009.02
2023-03-29T02:55:44.510Z,1009.03
2023-03-29T02:56:44.516Z,1008.91
2023-03-29T02:57:44.469Z,1008.97
2023-03-29T02:58:44.466Z,1008.98
2023-03-29T02:59:44.437Z,1008.91
2023-03-29T03:00:44.454Z,1008.95
2023-03-29T03:01:44.434Z,1009.01
2023-03-29T03:02:44.488Z,1008.93
2023-03-29T03:03:44.485Z,1008.95
2023-03-29T03:04:44.385Z,1008.94
2023-03-29T03:05:44.374Z,1008.87
2023-03-29T03:06:44.379Z,1008.84
2023-03-29T03:07:44.347Z,1008.86
2023-03-29T03:08:44.340Z,1008.80
2023-03-29T03:09:44.361Z,1008.83
2023-03-29T03:10:44.333Z,1008.82
2023-03-29T03:11:44.329Z,1008.86
2023-03-29T03:12:44.303Z,1008.85
2023-03-29T03:13:44.290Z,1008.87
2023-03-29T03:14:44.282Z,1008.89
2023-03-29T03:15:44.268Z,1008.86
2023-03-29T03:16:44.338Z,1008.85
2023-03-29T03:17:44.257Z,1008.83
2023-03-29T03:18:44.229Z,1008.81
2023-03-29T03:19:44.216Z,1008.84
2023-03-29T03:20:44.225Z,1008.84
2023-03-29T03:21:44.203Z,1008.80
2023-03-29T03:22:44.179Z,1008.78
2023-03-29T03:23:44.166Z,1008.84
2023-03-29T03:24:44.169Z,1008.79
2023-03-29T03:25:44.162Z,1008.74
2023-03-29T03:26:44.142Z,1008.72
2023-03-29T03:27:44.154Z,1008.74
2023-03-29T03:28:44.111Z,1008.80
2023-03-29T03:29:44.110Z,1008.78
2023-03-29T03:30:44.128Z,1008.84
2023-03-29T03:31:44.103Z,1008.80
2023-03-29T03:32:44.100Z,1008.85
2023-03-29T03:33:44.058Z,1008.83
2023-03-29T03:34:44.043Z,1008.76
2023-03-29T03:35:44.047Z,1008.79
2023-03-29T03:36:44.040Z,1008.91
2023-03-29T03:37:44.012Z,1008.82
2023-03-29T03:38:44.086Z,1008.87
2023-03-29T03:39:43.992Z,1008.88
2023-03-29T03:40:43.989Z,1008.94
2023-03-29T03:41:43.984Z,1008.80
2023-03-29T03:42:43.970Z,1008.82
2023-03-29T03:43:43.960Z,1008.81
2023-03-29T03:44:43.940Z,1008.83
2023-03-29T03:45:43.948Z,1008.77
2023-03-29T03:46:43.913Z,1008.74
2023-03-29T03:47:43.933Z,1008.82
2023-03-29T03:48:43.884Z,1008.82
2023-03-29T03:49:43.888Z,1008.79
2023-03-29T03:50:43.867Z,1008.78
2023-03-29T03:51:43.880Z,1008.79
2023-03-29T03:52:43.844Z,1008.76
2023-03-29T03:53:43.833Z,1008.74
2023-03-29T03:54:43.827Z,1008.73
2023-03-29T03:55:43.838Z,1008.80
2023-03-29T03:56:43.828Z,1008.74
2023-03-29T03:57:43.790Z,1008.79
2023-03-29T03:58:43.776Z,1008.77
2023-03-29T03:59:43.781Z,1008.83
2023-03-29T04:00:43.758Z,1008.79
2023-03-29T04:01:43.850Z,1008.76
2023-03-29T04:02:43.827Z,1008.75
2023-03-29T04:03:43.825Z,1008.66
2023-03-29T04:04:43.724Z,1008.59
2023-03-29T04:05:43.691Z,1008.62
2023-03-29T04:06:43.937Z,1008.61
2023-03-29T04:07:43.748Z,1008.53
2023-03-29T04:08:43.712Z,1008.63
2023-03-29T04:09:43.731Z,1008.53
2023-03-29T04:10:43.709Z,1008.62
2023-03-29T04:11:43.625Z,1008.59
2023-03-29T04:12:43.630Z,1008.60
2023-03-29T04:13:43.614Z,1008.61
2023-03-29T04:14:43.618Z,1008.57
2023-03-29T04:15:43.669Z,1008.57
2023-03-29T04:16:43.582Z,1008.58
2023-03-29T04:17:43.605Z,1008.58
2023-03-29T04:18:43.694Z,1008.56
2023-03-29T04:19:43.561Z,1008.55
2023-03-29T04:20:43.529Z,1008.52
2023-03-29T04:21:43.511Z,1008.49
2023-03-29T04:22:43.521Z,1008.52
2023-03-29T04:23:43.519Z,1008.53
2023-03-29T04:24:43.490Z,1008.49
2023-03-29T04:25:43.487Z,1008.50
2023-03-29T04:26:43.457Z,1008.52
2023-03-29T04:27:43.458Z,1008.43
2023-03-29T04:28:43.436Z,1008.43
2023-03-29T04:29:43.439Z,1008.46
2023-03-29T04:30:43.436Z,1008.41
2023-03-29T04:31:43.480Z,1008.42
2023-03-29T04:32:43.466Z,1008.46
2023-03-29T04:33:43.419Z,1008.45
2023-03-29T04:34:43.387Z,1008.40
2023-03-29T04:35:43.404Z,1008.38
2023-03-29T04:36:43.349Z,1008.43
2023-03-29T04:37:43.348Z,1008.39
2023-03-29T04:38:47.358Z,1008.34
2023-03-29T04:39:43.327Z,1008.42
2023-03-29T04:40:43.313Z,1008.34
2023-03-29T04:41:43.312Z,1008.34
2023-03-29T04:42:43.284Z,1008.32
2023-03-29T04:43:43.280Z,1008.35
2023-03-29T04:44:43.296Z,1008.33
2023-03-29T04:45:43.273Z,1008.33
2023-03-29T04:46:43.309Z,1008.32
2023-03-29T04:47:43.294Z,1008.31
2023-03-29T04:48:43.214Z,1008.38
2023-03-29T04:49:43.211Z,1008.39
2023-03-29T04:50:43.189Z,1008.37
2023-03-29T04:51:43.209Z,1008.30
2023-03-29T04:52:43.207Z,1008.29
2023-03-29T04:53:43.181Z,1008.29
2023-03-29T04:54:43.160Z,1008.29
2023-03-29T04:55:43.143Z,1008.36
2023-03-29T04:56:43.185Z,1008.30
2023-03-29T04:57:43.155Z,1008.30
2023-03-29T04:58:43.145Z,1008.22
2023-03-29T04:59:43.098Z,1008.21
2023-03-29T05:00:43.096Z,1008.20
2023-03-29T05:01:43.175Z,1008.18
2023-03-29T05:02:43.163Z,1008.21
2023-03-29T05:03:43.113Z,1008.18
2023-03-29T05:04:43.153Z,1008.16
2023-03-29T05:05:43.060Z,1008.19
2023-03-29T05:06:43.018Z,1008.14
2023-03-29T05:07:43.007Z,1008.20
2023-03-29T05:08:42.993Z,1008.17
2023-03-29T05:09:43.005Z,1008.19
2023-03-29T05:10:42.969Z,1008.18
2023-03-29T05:11:42.961Z,1008.21
2023-03-29T05:12:42.942Z,1008.23
2023-03-29T05:13:42.957Z,1008.30
2023-03-29T05:14:42.935Z,1008.25
2023-03-29T05:15:42.944Z,1008.22
2023-03-29T05:16:42.930Z,1008.28
2023-03-29T05:17:42.960Z,1008.27
2023-03-29T05:18:42.879Z,1008.24
2023-03-29T05:19:42.968Z,1008.24
2023-03-29T05:20:42.856Z,1008.22
2023-03-29T05:21:45.096Z,1008.20
2023-03-29T05:22:42.851Z,1008.21
2023-03-29T05:23:42.826Z,1008.17
2023-03-29T05:24:42.807Z,1008.17
2023-03-29T05:25:42.811Z,1008.17
2023-03-29T05:26:42.783Z,1008.17
2023-03-29T05:27:42.778Z,1008.15
2023-03-29T05:28:42.770Z,1008.15
2023-03-29T05:29:42.754Z,1008.17
2023-03-29T05:30:42.747Z,1008.16
2023-03-29T05:31:42.764Z,1008.22
2023-03-29T05:32:42.810Z,1008.25
2023-03-29T05:33:42.709Z,1008.16
2023-03-29T05:34:42.712Z,1008.21
2023-03-29T05:35:42.744Z,1008.19
2023-03-29T05:36:42.671Z,1008.22
2023-03-29T05:37:42.683Z,1008.19
2023-03-29T05:38:42.706Z,1008.27
2023-03-29T05:39:42.642Z,1008.21
2023-03-29T05:40:42.641Z,1008.26
2023-03-29T05:41:42.635Z,1008.21
2023-03-29T05:42:42.609Z,1008.17
2023-03-29T05:43:42.620Z,1008.13
2023-03-29T05:44:42.584Z,1008.15
2023-03-29T05:45:42.639Z,1008.23
2023-03-29T05:46:42.576Z,1008.17
2023-03-29T05:47:42.607Z,1008.17
2023-03-29T05:48:42.544Z,1008.19
2023-03-29T05:49:42.540Z,1008.15
2023-03-29T05:50:44.396Z,1008.21
2023-03-29T05:51:42.525Z,1008.19
2023-03-29T05:52:42.501Z,1008.14
2023-03-29T05:53:42.488Z,1008.20
2023-03-29T05:54:42.491Z,1008.12
2023-03-29T05:55:42.463Z,1008.15
2023-03-29T05:56:42.544Z,1008.13
2023-03-29T05:57:42.440Z,1008.13
2023-03-29T05:58:42.439Z,1008.18
2023-03-29T05:59:42.420Z,1008.18
2023-03-29T06:00:42.409Z,1008.19
2023-03-29T06:01:42.398Z,1008.16
2023-03-29T06:02:42.487Z,1008.17
2023-03-29T06:03:42.562Z,1008.13
2023-03-29T06:04:42.372Z,1008.17
2023-03-29T06:05:42.351Z,1008.18
2023-03-29T06:06:42.338Z,1008.19
2023-03-29T06:07:42.386Z,1008.23
2023-03-29T06:08:42.333Z,1008.20
2023-03-29T06:09:42.319Z,1008.18
2023-03-29T06:10:42.290Z,1008.15
2023-03-29T06:11:42.293Z,1008.09
2023-03-29T06:12:42.267Z,1008.11
2023-03-29T06:13:42.294Z,1008.05
2023-03-29T06:14:42.242Z,1008.15
2023-03-29T06:15:42.257Z,1008.09
2023-03-29T06:16:42.982Z,1008.08
2023-03-29T06:17:42.268Z,1008.13
2023-03-29T06:18:42.204Z,1008.10
2023-03-29T06:19:42.192Z,1008.21
2023-03-29T06:20:42.209Z,1008.15
2023-03-29T06:21:42.169Z,1008.15
2023-03-29T06:22:42.160Z,1008.05
2023-03-29T06:23:42.183Z,1008.10
2023-03-29T06:24:42.150Z,1008.02
2023-03-29T06:25:42.122Z,1008.05
2023-03-29T06:26:42.138Z,1008.01
2023-03-29T06:27:42.101Z,1008.05
2023-03-29T06:28:42.092Z,1008.10
2023-03-29T06:29:42.079Z,1008.05
2023-03-29T06:30:42.070Z,1008.06
2023-03-29T06:31:42.199Z,1008.11
2023-03-29T06:32:42.133Z,1008.13
2023-03-29T06:33:42.040Z,1008.07
2023-03-29T06:34:42.027Z,1008.08
2023-03-29T06:35:42.052Z,1008.05
2023-03-29T06:36:41.996Z,1008.03
2023-03-29T06:37:42.001Z,1008.05
2023-03-29T06:38:41.974Z,1008.09
2023-03-29T06:39:42.004Z,1008.09
2023-03-29T06:40:41.955Z,1008.09
2023-03-29T06:41:41.943Z,1008.14
2023-03-29T06:42:41.940Z,1008.14
2023-03-29T06:43:41.945Z,1008.12
2023-03-29T06:44:41.913Z,1008.16
2023-03-29T06:45:41.902Z,1008.16
2023-03-29T06:46:41.912Z,1008.12
2023-03-29T06:47:41.904Z,1008.13
2023-03-29T06:48:41.874Z,1008.09
2023-03-29T06:49:41.867Z,1008.05
2023-03-29T06:50:41.844Z,1008.12
2023-03-29T06:51:41.837Z,1008.08
2023-03-29T06:52:41.826Z,1008.15
2023-03-29T06:53:41.815Z,1008.18
2023-03-29T06:54:41.802Z,1008.18
2023-03-29T06:55:41.824Z,1008.19
2023-03-29T06:56:41.843Z,1008.17
2023-03-29T06:57:41.764Z,1008.15
2023-03-29T06:58:41.754Z,1008.14
2023-03-29T06:59:41.765Z,1008.26
2023-03-29T07:00:41.748Z,1008.27
2023-03-29T07:01:41.740Z,1008.26
2023-03-29T07:02:41.713Z,1008.25
2023-03-29T07:03:41.705Z,1008.32
2023-03-29T07:04:41.801Z,1008.33
2023-03-29T07:05:41.691Z,1008.31
2023-03-29T07:06:41.666Z,1008.30
2023-03-29T07:07:41.674Z,1008.30
2023-03-29T07:08:41.640Z,1008.27
2023-03-29T07:09:41.625Z,1008.36
2023-03-29T07:10:41.621Z,1008.28
2023-03-29T07:11:41.639Z,1008.37
2023-03-29T07:12:41.602Z,1008.31
2023-03-29T07:13:41.584Z,1008.37
2023-03-29T07:14:41.568Z,1008.35
2023-03-29T07:15:41.565Z,1008.36
2023-03-29T07:16:41.608Z,1008.38
2023-03-29T07:17:41.542Z,1008.38
2023-03-29T07:18:41.626Z,1008.38
2023-03-29T07:19:41.524Z,1008.40
2023-03-29T07:20:41.498Z,1008.41
2023-03-29T07:21:41.488Z,1008.36
2023-03-29T07:22:41.560Z,1008.41
2023-03-29T07:23:41.479Z,1008.41
2023-03-29T07:24:41.459Z,1008.40
2023-03-29T07:25:41.452Z,1008.43
2023-03-29T07:26:52.320Z,1008.36
2023-03-29T07:27:42.442Z,1008.44
2023-03-29T07:28:41.570Z,1008.38
2023-03-29T07:29:41.401Z,1008.38
2023-03-29T07:30:41.450Z,1008.38
2023-03-29T07:31:41.375Z,1008.39
2023-03-29T07:32:41.469Z,1008.41
2023-03-29T07:33:41.489Z,1008.33
2023-03-29T07:34:41.385Z,1008.37
2023-03-29T07:35:41.383Z,1008.37
2023-03-29T07:36:48.424Z,1008.33
2023-03-29T07:37:41.312Z,1008.33
2023-03-29T07:38:41.313Z,1008.34
2023-03-29T07:39:41.308Z,1008.34
2023-03-29T07:40:41.315Z,1008.35
2023-03-29T07:41:41.269Z,1008.40
2023-03-29T07:42:41.271Z,1008.42
2023-03-29T07:43:41.269Z,1008.38
2023-03-29T07:44:41.244Z,1008.43
2023-03-29T07:45:41.244Z,1008.43
2023-03-29T07:46:41.204Z,1008.43
2023-03-29T07:47:41.252Z,1008.44
2023-03-29T07:48:41.181Z,1008.44
2023-03-29T07:49:41.181Z,1008.41
2023-03-29T07:50:41.164Z,1008.55
2023-03-29T07:51:41.148Z,1008.48
2023-03-29T07:52:41.145Z,1008.52
2023-03-29T07:53:41.125Z,1008.54
2023-03-29T07:54:41.118Z,1008.54
2023-03-29T07:55:41.115Z,1008.49
2023-03-29T07:56:41.126Z,1008.47
2023-03-29T07:57:41.089Z,1008.47
2023-03-29T07:58:41.074Z,1008.46
2023-03-29T07:59:41.100Z,1008.43
2023-03-29T08:00:41.083Z,1008.48
2023-03-29T08:01:41.047Z,1008.51
2023-03-29T08:02:41.053Z,1008.51
2023-03-29T08:03:41.015Z,1008.53
2023-03-29T08:04:41.052Z,1008.51
2023-03-29T08:05:41.902Z,1008.49
2023-03-29T08:06:40.998Z,1008.56
2023-03-29T08:07:40.986Z,1008.56
2023-03-29T08:08:40.949Z,1008.57
2023-03-29T08:09:40.944Z,1008.52
2023-03-29T08:10:40.926Z,1008.50
2023-03-29T08:11:40.926Z,1008.47
2023-03-29T08:12:40.915Z,1008.55
2023-03-29T08:13:40.912Z,1008.47
2023-03-29T08:14:40.893Z,1008.55
2023-03-29T08:15:40.901Z,1008.41
2023-03-29T08:16:40.902Z,1008.44
2023-03-29T08:17:40.900Z,1008.42
2023-03-29T08:18:40.855Z,1008.46
2023-03-29T08:19:40.844Z,1008.45
2023-03-29T08:20:41.818Z,1008.45
2023-03-29T08:21:40.812Z,1008.43
2023-03-29T08:22:40.794Z,1008.34
2023-03-29T08:23:40.794Z,1008.36
2023-03-29T08:24:40.784Z,1008.39
2023-03-29T08:25:40.770Z,1008.36
2023-03-29T08:26:40.755Z,1008.39
2023-03-29T08:27:40.744Z,1008.39
2023-03-29T08:28:40.729Z,1008.34
2023-03-29T08:29:40.753Z,1008.38
2023-03-29T08:30:40.721Z,1008.38
2023-03-29T08:31:40.746Z,1008.33
2023-03-29T08:32:40.745Z,1008.30
2023-03-29T08:33:40.685Z,1008.25
2023-03-29T08:34:40.665Z,1008.29
2023-03-29T08:35:40.700Z,1008.28
2023-03-29T08:36:40.638Z,1008.22
2023-03-29T08:37:40.626Z,1008.21
2023-03-29T08:38:40.622Z,1008.27
2023-03-29T08:39:40.636Z,1008.31
2023-03-29T08:40:40.635Z,1008.37
2023-03-29T08:41:40.659Z,1008.30
2023-03-29T08:42:40.581Z,1008.29
2023-03-29T08:43:40.595Z,1008.27
2023-03-29T08:44:40.556Z,1008.35
2023-03-29T08:45:40.572Z,1008.30
2023-03-29T08:46:40.592Z,1008.34
2023-03-29T08:47:40.591Z,1008.31
2023-03-29T08:48:40.571Z,1008.35
2023-03-29T08:49:40.518Z,1008.42
2023-03-29T08:50:40.479Z,1008.41
2023-03-29T08:51:40.467Z,1008.39
2023-03-29T08:52:40.463Z,1008.38
2023-03-29T08:53:40.461Z,1008.36
2023-03-29T08:54:40.453Z,1008.37
2023-03-29T08:55:40.445Z,1008.44
2023-03-29T08:56:40.449Z,1008.35
2023-03-29T08:57:40.414Z,1008.38
2023-03-29T08:58:40.391Z,1008.41
2023-03-29T08:59:40.382Z,1008.39
2023-03-29T09:00:40.365Z,1008.34
2023-03-29T09:01:40.401Z,1008.38
2023-03-29T09:02:40.406Z,1008.31
2023-03-29T09:03:40.508Z,1008.38
2023-03-29T09:04:40.323Z,1008.36
2023-03-29T09:05:40.314Z,1008.39
2023-03-29T09:06:40.312Z,1008.37
2023-03-29T09:07:40.296Z,1008.43
2023-03-29T09:08:40.289Z,1008.34
2023-03-29T09:09:40.264Z,1008.43
2023-03-29T09:10:40.256Z,1008.44
2023-03-29T09:11:40.248Z,1008.37
2023-03-29T09:12:40.254Z,1008.41
2023-03-29T09:13:40.228Z,1008.36
2023-03-29T09:14:40.222Z,1008.38
2023-03-29T09:15:40.250Z,1008.31
2023-03-29T09:16:40.191Z,1008.33
2023-03-29T09:17:40.191Z,1008.25
2023-03-29T09:18:40.168Z,1008.28
2023-03-29T09:19:40.183Z,1008.28
2023-03-29T09:20:40.143Z,1008.27
2023-03-29T09:21:40.140Z,1008.32
2023-03-29T09:22:40.133Z,1008.34
2023-03-29T09:23:40.110Z,1008.29
2023-03-29T09:24:40.101Z,1008.28
2023-03-29T09:25:50.749Z,1008.31
2023-03-29T09:26:41.071Z,1008.35
2023-03-29T09:27:40.058Z,1008.24
2023-03-29T09:28:40.073Z,1008.34
2023-03-29T09:29:40.044Z,1008.25
2023-03-29T09:30:40.037Z,1008.28
2023-03-29T09:31:40.065Z,1008.34
2023-03-29T09:32:40.065Z,1008.36
2023-03-29T09:33:40.000Z,1008.39
2023-03-29T09:34:39.982Z,1008.34
2023-03-29T09:35:40.004Z,1008.35
2023-03-29T09:36:39.958Z,1008.32
2023-03-29T09:37:39.951Z,1008.28
2023-03-29T09:38:39.940Z,1008.25
2023-03-29T09:39:39.936Z,1008.23
2023-03-29T09:40:39.924Z,1008.29
2023-03-29T09:41:39.898Z,1008.31
2023-03-29T09:42:39.898Z,1008.19
2023-03-29T09:43:39.873Z,1008.29
2023-03-29T09:44:39.870Z,1008.24
2023-03-29T09:45:39.910Z,1008.14
2023-03-29T09:46:39.858Z,1008.27
2023-03-29T09:47:39.877Z,1008.29
2023-03-29T09:48:39.822Z,1008.27
2023-03-29T09:49:39.808Z,1008.33
2023-03-29T09:50:39.828Z,1008.33
2023-03-29T09:51:39.894Z,1008.35
2023-03-29T09:52:39.791Z,1008.37
2023-03-29T09:53:39.779Z,1008.37
2023-03-29T09:54:39.761Z,1008.36
2023-03-29T09:55:39.744Z,1008.37
2023-03-29T09:56:39.800Z,1008.22
2023-03-29T09:57:39.737Z,1008.28
2023-03-29T09:58:39.720Z,1008.27
2023-03-29T09:59:39.693Z,1008.32
2023-03-29T10:00:39.687Z,1008.36
2023-03-29T10:01:39.704Z,1008.36
2023-03-29T10:02:39.744Z,1008.37
2023-03-29T10:03:39.664Z,1008.38
2023-03-29T10:04:39.707Z,1008.40
2023-03-29T10:05:39.627Z,1008.40
2023-03-29T10:06:39.619Z,1008.43
2023-03-29T10:07:39.654Z,1008.40
2023-03-29T10:08:39.607Z,1008.39
2023-03-29T10:09:39.618Z,1008.39
2023-03-29T10:10:39.575Z,1008.43
2023-03-29T10:11:39.561Z,1008.39
2023-03-29T10:12:39.552Z,1008.44
2023-03-29T10:13:39.552Z,1008.42
2023-03-29T10:14:39.535Z,1008.38
2023-03-29T10:15:39.536Z,1008.31
2023-03-29T10:16:39.594Z,1008.38
2023-03-29T10:17:39.518Z,1008.37
2023-03-29T10:18:39.506Z,1008.42
2023-03-29T10:19:39.472Z,1008.37
2023-03-29T10:20:39.466Z,1008.38
2023-03-29T10:21:39.458Z,1008.35
2023-03-29T10:22:39.442Z,1008.26
2023-03-29T10:23:39.463Z,1008.33
2023-03-29T10:24:39.429Z,1008.30
2023-03-29T10:25:42.124Z,1008.34
2023-03-29T10:26:39.402Z,1008.34
2023-03-29T10:27:39.386Z,1008.35
2023-03-29T10:28:39.383Z,1008.31
2023-03-29T10:29:39.356Z,1008.39
2023-03-29T10:30:39.347Z,1008.35
2023-03-29T10:31:39.359Z,1008.25
2023-03-29T10:32:39.353Z,1008.24
2023-03-29T10:33:39.332Z,1008.29
2023-03-29T10:34:39.311Z,1008.27
2023-03-29T10:35:39.303Z,1008.23
2023-03-29T10:36:39.293Z,1008.23
2023-03-29T10:37:39.268Z,1008.18
2023-03-29T10:38:39.292Z,1008.20
2023-03-29T10:39:39.268Z,1008.14
2023-03-29T10:40:39.251Z,1008.12
2023-03-29T10:41:39.221Z,1008.10
2023-03-29T10:42:39.211Z,1008.15
2023-03-29T10:43:39.211Z,1008.16
2023-03-29T10:44:39.198Z,1008.16
2023-03-29T10:45:39.176Z,1008.19
2023-03-29T10:46:39.275Z,1008.14
2023-03-29T10:47:39.161Z,1008.19
2023-03-29T10:48:39.150Z,1008.19
2023-03-29T10:49:39.146Z,1008.23
2023-03-29T10:50:39.143Z,1008.27
2023-03-29T10:51:39.119Z,1008.25
2023-03-29T10:52:39.114Z,1008.24
2023-03-29T10:53:39.102Z,1008.30
2023-03-29T10:54:39.085Z,1008.25
2023-03-29T10:55:39.086Z,1008.28
2023-03-29T10:56:39.160Z,1008.25
2023-03-29T10:57:39.067Z,1008.22
2023-03-29T10:58:39.047Z,1008.16
2023-03-29T10:59:39.018Z,1008.10
2023-03-29T11:00:39.012Z,1008.17
2023-03-29T11:01:39.037Z,1008.14
2023-03-29T11:02:39.053Z,1008.13
2023-03-29T11:03:39.037Z,1008.19
2023-03-29T11:04:38.961Z,1008.19
2023-03-29T11:05:38.986Z,1008.19
2023-03-29T11:06:38.982Z,1008.13
2023-03-29T11:07:38.926Z,1008.15
2023-03-29T11:08:38.928Z,1008.15
2023-03-29T11:09:38.902Z,1008.14
2023-03-29T11:10:38.904Z,1008.16
2023-03-29T11:11:38.965Z,1008.22
2023-03-29T11:12:38.884Z,1008.18
2023-03-29T11:13:38.858Z,1008.19
2023-03-29T11:14:38.855Z,1008.17
2023-03-29T11:15:38.906Z,1008.22
2023-03-29T11:16:38.826Z,1008.22
2023-03-29T11:17:38.894Z,1008.19
2023-03-29T11:18:38.806Z,1008.24
2023-03-29T11:19:38.792Z,1008.07
2023-03-29T11:20:38.784Z,1008.12
2023-03-29T11:21:38.776Z,1008.16
2023-03-29T11:22:38.761Z,1008.16
2023-03-29T11:23:38.786Z,1008.13
2023-03-29T11:24:38.742Z,1008.00
2023-03-29T11:25:38.723Z,1008.04
2023-03-29T11:26:38.714Z,1008.04
2023-03-29T11:27:38.725Z,1007.97
2023-03-29T11:28:38.696Z,1008.01
2023-03-29T11:29:38.704Z,1008.03
2023-03-29T11:30:38.667Z,1008.03
2023-03-29T11:31:39.176Z,1007.97
2023-03-29T11:32:38.751Z,1007.99
2023-03-29T11:33:38.663Z,1007.94
2023-03-29T11:34:38.630Z,1007.93
2023-03-29T11:35:38.677Z,1007.90
2023-03-29T11:36:38.610Z,1007.91
2023-03-29T11:37:38.587Z,1007.91
2023-03-29T11:38:38.581Z,1007.94
2023-03-29T11:39:38.570Z,1007.93
2023-03-29T11:40:38.568Z,1007.85
2023-03-29T11:41:38.546Z,1007.89
2023-03-29T11:42:38.552Z,1007.86
2023-03-29T11:43:38.550Z,1007.92
2023-03-29T11:44:38.523Z,1007.92
2023-03-29T11:45:38.498Z,1007.87
2023-03-29T11:46:38.510Z,1007.92
2023-03-29T11:47:38.502Z,1007.90
2023-03-29T11:48:38.468Z,1007.93
2023-03-29T11:49:38.502Z,1007.95
2023-03-29T11:50:38.446Z,1007.87
2023-03-29T11:51:38.430Z,1007.92
2023-03-29T11:52:38.423Z,1007.94
2023-03-29T11:53:38.412Z,1008.02
2023-03-29T11:54:38.399Z,1007.96
2023-03-29T11:55:38.423Z,1007.99
2023-03-29T11:56:38.409Z,1007.97
2023-03-29T11:57:38.369Z,1007.96
2023-03-29T11:58:39.280Z,1007.97
2023-03-29T11:59:38.410Z,1007.91
2023-03-29T12:00:38.348Z,1007.90
2023-03-29T12:01:38.346Z,1007.91
2023-03-29T12:02:38.411Z,1007.85
2023-03-29T12:03:38.333Z,1007.83
2023-03-29T12:04:38.286Z,1007.79
2023-03-29T12:05:38.288Z,1007.85